Time;durP1;ratioP1;P1;durP2;ratioP2;P2;SDS_P1;SDS_P2;PMS_P1;PMS_P2;Temp;Humidity;BMP_temperature;BMP_pressure;BME280_temperature;BME280_humidity;BME280_pressure;Samples;Min_cycle;Max_cycle;Signal;HPM_P1;HPM_P2
2022/09/30 00:01:24;;;;;;;15.88;13.55;;;;;;;7.74;91.34;100742.28;5001631;28;20040;-81
2022/09/30 00:03:50;;;;;;;16.58;13.55;;;;;;;7.77;91.02;100736.94;5001719;28;20029;-80
2022/09/30 00:06:16;;;;;;;16.52;14.93;;;;;;;7.73;90.70;100740.66;4997749;28;20025;-80
2022/09/30 00:08:42;;;;;;;17.15;14.80;;;;;;;7.72;91.44;100739.00;5000477;28;20026;-80
2022/09/30 00:11:22;;;;;;;15.98;14.25;;;;;;;7.75;91.48;100749.13;5004020;28;20057;-81
2022/09/30 00:13:50;;;;;;;17.08;15.35;;;;;;;7.68;91.44;100743.59;5007082;28;20456;-80
2022/09/30 00:16:16;;;;;;;16.33;12.10;;;;;;;7.78;91.74;100753.25;4999574;28;20030;-80
2022/09/30 00:18:43;;;;;;;17.05;15.32;;;;;;;7.69;91.09;100749.56;5007104;28;20107;-81
2022/09/30 00:21:09;;;;;;;16.85;15.25;;;;;;;7.69;91.27;100744.41;5000837;28;20022;-80
2022/09/30 00:23:36;;;;;;;14.52;12.93;;;;;;;7.74;91.00;100752.63;5004916;28;20029;-80
2022/09/30 00:26:04;;;;;;;15.00;12.95;;;;;;;7.68;91.11;100742.72;5004846;28;20038;-80
2022/09/30 00:28:30;;;;;;;14.45;12.95;;;;;;;7.71;91.29;100752.84;5005826;28;20030;-80
2022/09/30 00:31:06;;;;;;;16.55;15.05;;;;;;;7.64;91.22;100754.22;5004333;28;20371;-80
2022/09/30 00:33:32;;;;;;;15.88;12.00;;;;;;;7.65;91.09;100755.88;5007353;28;20531;-80
2022/09/30 00:35:57;;;;;;;16.88;13.63;;;;;;;7.52;91.07;100742.19;5006701;28;20057;-80
2022/09/30 00:38:22;;;;;;;13.27;11.43;;;;;;;7.53;90.78;100731.75;5005657;28;20053;-80
2022/09/30 00:40:48;;;;;;;13.98;12.43;;;;;;;7.54;90.99;100740.31;5006463;28;20471;-80
2022/09/30 00:43:19;;;;;;;14.05;11.98;;;;;;;7.57;91.20;100745.25;5004896;28;20026;-80
2022/09/30 00:45:53;;;;;;;13.23;11.70;;;;;;;7.57;91.12;100734.91;5005168;28;20033;-80
2022/09/30 00:48:34;;;;;;;13.82;12.10;;;;;;;7.57;91.28;100752.97;4993257;28;20057;-80
2022/09/30 00:51:01;;;;;;;13.57;12.18;;;;;;;7.47;90.87;100737.34;4998166;28;20030;-80
2022/09/30 00:53:35;;;;;;;14.00;12.02;;;;;;;7.54;90.72;100760.97;5001871;28;20034;-80
2022/09/30 00:56:09;;;;;;;15.20;12.75;;;;;;;7.53;91.90;100759.31;5000835;28;20022;-80
2022/09/30 00:58:40;;;;;;;16.73;12.23;;;;;;;7.54;91.32;100750.63;5005712;28;20129;-80
2022/09/30 01:01:06;;;;;;;13.85;11.82;;;;;;;7.56;91.17;100756.50;4993235;28;20022;-81
2022/09/30 01:03:35;;;;;;;14.00;12.18;;;;;;;7.51;91.50;100740.50;4996020;28;20089;-81
2022/09/30 01:06:01;;;;;;;16.30;14.60;;;;;;;7.42;92.74;100745.41;5004459;28;20063;-82
2022/09/30 01:08:29;;;;;;;15.95;14.45;;;;;;;7.45;92.16;100752.94;5005204;28;20044;-80
2022/09/30 01:10:57;;;;;;;14.27;11.80;;;;;;;7.41;91.11;100759.22;5003237;28;20034;-80
2022/09/30 01:13:26;;;;;;;14.45;11.65;;;;;;;7.32;91.38;100762.44;5002376;28;20033;-83
2022/09/30 01:15:56;;;;;;;13.98;11.10;;;;;;;7.30;90.60;100743.66;4995403;28;20097;-82
2022/09/30 01:18:53;;;;;;;12.77;8.85;;;;;;;7.30;90.73;100754.00;4995733;28;20038;-84
2022/09/30 01:21:30;;;;;;;13.60;11.40;;;;;;;7.12;91.19;100758.66;5000672;28;20018;-82
2022/09/30 01:24:26;;;;;;;14.02;11.70;;;;;;;7.05;91.28;100759.97;5007799;28;20030;-83
2022/09/30 01:27:23;;;;;;;13.70;11.60;;;;;;;7.03;91.34;100766.19;5000134;28;20038;-82
2022/09/30 01:29:51;;;;;;;12.45;9.23;;;;;;;7.04;90.52;100762.69;5007615;28;20030;-83
2022/09/30 01:32:58;;;;;;;12.52;9.43;;;;;;;7.03;91.41;100756.69;5005605;28;20061;-82
2022/09/30 01:35:37;;;;;;;10.57;8.43;;;;;;;6.99;91.02;100754.41;4995129;28;20042;-81
2022/09/30 01:38:12;;;;;;;11.88;10.32;;;;;;;6.87;90.97;100762.06;4999892;28;20277;-83
2022/09/30 01:40:55;;;;;;;11.88;10.30;;;;;;;6.82;90.99;100756.38;5004157;28;20033;-82
2022/09/30 01:43:39;;;;;;;10.57;9.40;;;;;;;6.80;90.78;100755.66;5004309;28;20022;-82
2022/09/30 01:46:21;;;;;;;12.23;9.90;;;;;;;6.79;90.98;100754.03;5005709;28;20034;-82
2022/09/30 01:48:55;;;;;;;14.15;10.32;;;;;;;6.74;91.18;100745.75;5006397;28;20121;-82
2022/09/30 01:51:23;;;;;;;12.75;10.60;;;;;;;6.80;91.88;100755.66;5005914;28;20061;-82
2022/09/30 01:53:58;;;;;;;13.90;10.20;;;;;;;6.84;91.31;100751.97;5009325;28;20423;-81
2022/09/30 01:56:43;;;;;;;15.43;13.15;;;;;;;6.78;90.76;100746.41;5007357;28;20025;-81
2022/09/30 01:59:35;;;;;;;13.68;11.18;;;;;;;6.83;91.35;100750.31;5003266;28;20427;-82
2022/09/30 02:02:10;;;;;;;16.48;14.75;;;;;;;6.72;91.41;100737.31;5008301;28;20026;-81
2022/09/30 02:04:51;;;;;;;14.77;9.48;;;;;;;6.85;90.45;100755.34;5003912;28;20033;-82
2022/09/30 02:07:29;;;;;;;14.35;9.73;;;;;;;6.80;90.51;100754.84;5009216;28;20053;-82
2022/09/30 02:10:00;;;;;;;13.20;9.20;;;;;;;6.74;90.14;100745.75;4998637;28;20037;-82
2022/09/30 02:12:30;;;;;;;15.05;11.38;;;;;;;6.78;90.91;100757.53;5006660;28;20121;-81
2022/09/30 02:15:05;;;;;;;15.55;12.65;;;;;;;6.76;91.75;100746.47;5008894;28;20032;-82
2022/09/30 02:17:47;;;;;;;13.80;10.93;;;;;;;6.82;91.25;100748.63;4998243;28;20125;-82
2022/09/30 02:20:21;;;;;;;15.10;11.60;;;;;;;6.73;92.05;100744.13;5000824;28;20025;-82
2022/09/30 02:22:59;;;;;;;14.30;11.23;;;;;;;6.80;90.97;100755.66;5000577;28;20061;-82
2022/09/30 02:25:33;;;;;;;15.63;11.50;;;;;;;6.71;91.27;100740.84;5008815;28;20033;-82
2022/09/30 02:28:04;;;;;;;15.70;12.15;;;;;;;6.70;90.71;100759.78;5007216;28;20108;-82
2022/09/30 02:30:32;;;;;;;15.77;10.73;;;;;;;6.67;90.46;100749.69;5005770;28;20037;-82
2022/09/30 02:33:12;;;;;;;15.32;11.52;;;;;;;6.61;91.08;100750.09;5008176;28;20069;-82
2022/09/30 02:35:45;;;;;;;13.82;10.50;;;;;;;6.53;90.63;100755.72;5008372;28;20030;-82
2022/09/30 02:38:16;;;;;;;13.55;11.18;;;;;;;6.50;90.90;100757.69;5006991;28;20032;-81
2022/09/30 02:40:49;;;;;;;12.98;10.00;;;;;;;6.43;90.57;100756.47;4998464;28;20498;-81
2022/09/30 02:43:19;;;;;;;11.27;8.48;;;;;;;6.45;90.26;100759.75;5004272;28;20034;-82
2022/09/30 02:45:52;;;;;;;12.93;8.82;;;;;;;6.41;90.76;100760.88;5008478;28;20073;-82
2022/09/30 02:48:20;;;;;;;11.68;8.38;;;;;;;6.35;90.97;100765.50;5006478;28;20468;-81
2022/09/30 02:50:49;;;;;;;;;;;;;;;6.38;90.08;100762.72;5008713;28;20043;-82
2022/09/30 02:53:20;;;;;;;11.70;8.23;;;;;;;6.30;90.71;100754.66;5008130;28;19917;-82
2022/09/30 02:56:23;;;;;;;12.55;10.80;;;;;;;6.26;90.67;100755.81;5007747;28;20034;-82
2022/09/30 02:58:51;;;;;;;13.20;10.18;;;;;;;6.19;90.97;100754.53;4946396;28;20489;-82
2022/09/30 03:01:17;;;;;;;12.05;9.30;;;;;;;6.18;90.82;100757.19;4940068;29;20533;-81
2022/09/30 03:03:50;;;;;;;14.45;8.35;;;;;;;6.15;91.35;100741.97;4936112;28;20126;-81
2022/09/30 03:06:16;;;;;;;13.57;9.35;;;;;;;6.16;91.49;100746.19;4935180;29;20602;-81
2022/09/30 03:08:42;;;;;;;12.10;8.48;;;;;;;6.21;90.99;100763.00;4939151;29;20116;-80
2022/09/30 03:11:15;;;;;;;12.45;9.15;;;;;;;6.18;91.22;100758.03;4938388;28;20031;-81
2022/09/30 03:14:05;;;;;;;12.38;10.27;;;;;;;6.06;91.69;100759.63;4938073;29;20047;-81
2022/09/30 03:16:34;;;;;;;12.23;7.75;;;;;;;6.09;90.33;100768.94;4929295;29;20046;-80
2022/09/30 03:19:18;;;;;;;11.25;8.88;;;;;;;6.03;90.83;100775.31;4929189;29;20046;-81
2022/09/30 03:22:05;;;;;;;12.65;11.18;;;;;;;5.97;90.40;100775.69;4937554;29;20032;-81
2022/09/30 03:24:58;;;;;;;12.15;8.68;;;;;;;6.00;90.95;100783.19;4934425;29;20471;-81
2022/09/30 03:27:52;;;;;;;13.07;9.60;;;;;;;5.95;90.48;100776.69;4932718;29;20082;-81
2022/09/30 03:30:27;;;;;;;12.73;8.88;;;;;;;5.93;90.44;100783.69;4930704;29;20232;-80
2022/09/30 03:33:17;;;;;;;11.48;7.90;;;;;;;5.96;90.51;100783.47;4938730;29;20031;-81
2022/09/30 03:35:57;;;;;;;11.88;8.13;;;;;;;5.98;91.33;100784.22;4961128;28;20045;-81
2022/09/30 03:38:41;;;;;;;12.48;10.70;;;;;;;5.99;91.23;100773.00;5007118;28;20030;-81
2022/09/30 03:41:21;;;;;;;13.25;8.90;;;;;;;6.03;91.92;100784.78;5002310;28;20038;-81
2022/09/30 03:43:54;;;;;;;12.95;10.15;;;;;;;6.00;91.02;100787.53;5007509;28;20464;-81
2022/09/30 03:46:20;;;;;;;12.10;8.88;;;;;;;6.00;90.83;100790.09;5003016;28;20073;-81
2022/09/30 03:48:49;;;;;;;14.23;8.60;;;;;;;5.95;91.15;100784.41;5000101;28;20026;-82
2022/09/30 03:51:16;;;;;;;12.50;9.50;;;;;;;5.92;90.70;100797.50;5000723;28;20056;-82
2022/09/30 03:53:45;;;;;;;12.65;10.43;;;;;;;5.82;91.06;100787.72;5000195;28;20049;-81
2022/09/30 03:56:11;;;;;;;14.88;11.48;;;;;;;5.88;91.52;100794.25;5004140;28;20021;-81
2022/09/30 03:58:41;;;;;;;13.32;9.52;;;;;;;5.93;91.97;100804.28;5001418;28;20085;-81
2022/09/30 04:01:06;;;;;;;12.98;10.15;;;;;;;5.76;91.08;100798.41;5004170;28;20053;-81
2022/09/30 04:03:32;;;;;;;13.15;10.50;;;;;;;5.75;91.16;100814.78;4996264;28;20472;-81
2022/09/30 04:05:57;;;;;;;15.00;10.18;;;;;;;5.81;91.11;100816.13;4994948;28;20541;-81
2022/09/30 04:08:22;;;;;;;14.70;9.98;;;;;;;5.81;91.84;100822.09;4990816;28;20034;-82
2022/09/30 04:10:48;;;;;;;13.27;9.18;;;;;;;5.75;91.35;100817.34;4995400;28;20065;-81
2022/09/30 04:13:13;;;;;;;15.30;12.60;;;;;;;5.74;91.52;100836.28;4989572;28;20488;-82
2022/09/30 04:15:40;;;;;;;12.82;9.60;;;;;;;5.78;91.90;100839.47;5002026;28;20416;-82
2022/09/30 04:18:06;;;;;;;13.02;9.35;;;;;;;5.71;91.73;100827.91;4997705;28;20025;-83
2022/09/30 04:20:31;;;;;;;15.38;13.77;;;;;;;5.65;92.67;100821.41;5007414;28;20037;-80
2022/09/30 04:22:58;;;;;;;13.45;10.57;;;;;;;5.81;92.25;100841.88;5005032;28;20073;-81
2022/09/30 04:25:24;;;;;;;15.48;9.13;;;;;;;5.81;92.30;100837.56;5005498;28;20041;-82
2022/09/30 04:27:50;;;;;;;13.73;11.27;;;;;;;5.85;92.63;100843.34;5002626;28;20062;-82
2022/09/30 04:30:15;;;;;;;12.88;11.48;;;;;;;5.83;92.08;100833.13;5003675;28;20470;-81
2022/09/30 04:32:44;;;;;;;12.70;9.38;;;;;;;5.82;91.54;100823.75;5006740;28;20492;-81
2022/09/30 04:35:11;;;;;;;13.55;9.30;;;;;;;5.89;92.13;100838.81;5005585;28;20047;-82
2022/09/30 04:37:41;;;;;;;12.88;9.40;;;;;;;5.94;91.70;100839.41;5005856;28;20380;-81
2022/09/30 04:40:08;;;;;;;14.38;11.10;;;;;;;5.92;91.90;100838.69;5006011;28;20060;-81
2022/09/30 04:42:34;;;;;;;13.10;9.95;;;;;;;5.93;92.27;100848.88;5007369;28;20042;-81
2022/09/30 04:45:00;;;;;;;13.40;9.45;;;;;;;5.92;91.74;100834.34;5006324;28;20167;-82
2022/09/30 04:47:25;;;;;;;13.70;9.80;;;;;;;5.92;92.33;100839.50;5007347;28;20033;-81
2022/09/30 04:49:50;;;;;;;16.08;14.07;;;;;;;5.81;92.84;100842.69;5006114;28;20383;-80
2022/09/30 04:52:16;;;;;;;17.95;11.90;;;;;;;5.86;91.92;100858.69;5004655;28;20026;-81
2022/09/30 04:54:41;;;;;;;14.85;11.30;;;;;;;5.82;92.36;100859.78;5005242;28;20400;-82
2022/09/30 04:57:07;;;;;;;14.30;9.98;;;;;;;5.82;92.39;100858.97;5002899;28;20463;-81
2022/09/30 04:59:32;;;;;;;15.23;13.60;;;;;;;5.73;91.83;100860.34;4999258;28;20055;-81
2022/09/30 05:01:58;;;;;;;16.60;10.20;;;;;;;5.77;91.73;100864.38;5005635;28;20026;-81
2022/09/30 05:04:23;;;;;;;15.50;11.68;;;;;;;5.64;91.74;100863.50;5006024;28;20038;-82
2022/09/30 05:06:49;;;;;;;15.45;10.02;;;;;;;5.70;92.11;100860.53;4997979;28;20467;-82
2022/09/30 05:09:14;;;;;;;13.30;9.60;;;;;;;5.64;92.09;100849.81;4993526;28;20474;-81
2022/09/30 05:11:41;;;;;;;16.38;14.73;;;;;;;5.58;92.15;100851.00;4994369;28;20045;-81
2022/09/30 05:14:08;;;;;;;16.33;10.60;;;;;;;5.66;92.47;100853.91;4991237;28;20045;-81
2022/09/30 05:16:33;;;;;;;15.52;12.38;;;;;;;5.69;91.87;100858.06;4996472;28;20025;-81
2022/09/30 05:18:59;;;;;;;13.38;10.70;;;;;;;5.72;91.79;100853.53;4994821;28;20041;-81
2022/09/30 05:21:24;;;;;;;13.45;8.30;;;;;;;5.74;91.53;100862.03;4991713;28;20033;-81
2022/09/30 05:23:49;;;;;;;10.88;9.02;;;;;;;5.59;91.46;100842.34;4998544;28;20032;-81
2022/09/30 05:26:15;;;;;;;11.25;7.65;;;;;;;5.69;90.80;100866.63;4997851;28;20532;-82
2022/09/30 05:28:41;;;;;;;11.93;8.45;;;;;;;5.59;91.17;100862.94;5008610;28;20042;-81
2022/09/30 05:31:06;;;;;;;15.55;9.07;;;;;;;5.52;91.32;100861.66;4997596;28;20030;-81
2022/09/30 05:33:33;;;;;;;12.20;10.60;;;;;;;5.56;91.39;100883.69;4994718;28;20031;-80
2022/09/30 05:36:00;;;;;;;11.82;8.70;;;;;;;5.56;91.20;100883.69;5001486;28;20121;-80
2022/09/30 05:38:26;;;;;;;12.40;9.23;;;;;;;5.50;90.61;100889.19;4994316;28;20034;-79
2022/09/30 05:40:53;;;;;;;11.75;9.73;;;;;;;5.40;91.10;100903.53;5003214;28;20022;-80
2022/09/30 05:43:18;;;;;;;12.02;9.15;;;;;;;5.29;90.27;100899.84;4998231;28;20479;-80
2022/09/30 05:45:52;;;;;;;11.15;8.70;;;;;;;5.27;91.01;100909.38;5008030;28;20486;-81
2022/09/30 05:48:17;;;;;;;14.15;9.27;;;;;;;5.21;90.48;100914.06;5008008;28;20026;-80
2022/09/30 05:50:42;;;;;;;11.48;9.18;;;;;;;5.18;91.06;100903.97;5007363;28;20083;-80
2022/09/30 05:53:08;;;;;;;11.63;9.63;;;;;;;5.10;90.79;100906.94;5008445;28;20297;-80
2022/09/30 05:55:33;;;;;;;11.93;9.30;;;;;;;5.13;91.12;100913.69;4993735;28;20026;-80
2022/09/30 05:57:58;;;;;;;13.13;10.30;;;;;;;5.14;91.52;100908.44;5005204;28;20452;-80
2022/09/30 06:00:24;;;;;;;13.40;10.02;;;;;;;5.18;92.52;100914.25;5007478;28;20471;-80
2022/09/30 06:02:52;;;;;;;15.68;10.23;;;;;;;5.21;92.21;100914.88;5001334;28;20452;-80
2022/09/30 06:05:17;;;;;;;15.35;10.45;;;;;;;5.24;92.72;100912.13;4994870;28;20061;-80
2022/09/30 06:07:43;;;;;;;15.50;10.25;;;;;;;5.24;92.66;100914.72;4996805;28;20054;-81
2022/09/30 06:10:11;;;;;;;13.35;10.55;;;;;;;5.27;92.09;100935.09;4995278;28;20115;-80
2022/09/30 06:12:37;;;;;;;15.82;10.75;;;;;;;5.27;92.50;100935.09;5005782;28;20022;-80
2022/09/30 06:15:03;;;;;;;14.95;11.50;;;;;;;5.28;92.15;100931.63;4996886;28;20072;-80
2022/09/30 06:17:28;;;;;;;14.07;10.60;;;;;;;5.27;92.10;100929.94;5002756;28;20030;-80
2022/09/30 06:19:55;;;;;;;13.00;9.50;;;;;;;5.23;91.62;100931.06;5008436;28;20033;-80
2022/09/30 06:22:20;;;;;;;12.82;9.68;;;;;;;5.22;92.23;100942.28;5006839;28;20499;-80
2022/09/30 06:24:45;;;;;;;13.95;9.35;;;;;;;5.26;92.08;100935.19;5008857;28;20120;-79
2022/09/30 06:27:11;;;;;;;13.73;10.95;;;;;;;5.23;92.38;100931.06;5008045;28;20468;-80
2022/09/30 06:29:37;;;;;;;13.35;9.95;;;;;;;5.29;92.50;100941.00;5008554;28;20429;-80
2022/09/30 06:32:02;;;;;;;12.40;9.57;;;;;;;5.35;92.85;100931.28;5008356;28;20029;-80
2022/09/30 06:34:28;;;;;;;12.40;8.70;;;;;;;5.36;92.28;100945.78;5002004;28;20022;-79
2022/09/30 06:36:53;;;;;;;14.27;9.32;;;;;;;5.30;92.28;100927.22;5003041;28;20026;-80
2022/09/30 06:39:19;;;;;;;14.55;10.98;;;;;;;5.31;92.54;100925.47;5001627;28;20593;-80
2022/09/30 06:41:45;;;;;;;18.55;11.73;;;;;;;5.36;92.85;100922.63;5007710;28;20065;-80
2022/09/30 06:44:11;;;;;;;18.70;11.75;;;;;;;5.41;92.37;100930.91;5007773;28;20484;-79
2022/09/30 06:46:36;;;;;;;16.30;11.40;;;;;;;5.42;92.84;100935.13;5008305;28;20034;-80
2022/09/30 06:49:03;;;;;;;18.02;13.95;;;;;;;5.36;92.46;100920.06;5008628;28;20032;-80
2022/09/30 06:51:32;;;;;;;20.13;16.30;;;;;;;5.39;93.02;100922.44;5008277;28;20087;-79
2022/09/30 06:53:57;;;;;;;;;;;;;;;5.54;92.28;100926.69;4998999;28;20021;-80
2022/09/30 06:56:22;;;;;;;16.00;11.55;;;;;;;5.47;92.93;100920.25;4990012;28;20290;-79
2022/09/30 06:58:48;;;;;;;16.83;12.18;;;;;;;5.55;92.73;100926.59;5000584;28;20041;-80
2022/09/30 07:01:14;;;;;;;19.60;16.70;;;;;;;5.58;93.26;100934.16;4996719;28;20077;-79
2022/09/30 07:03:44;;;;;;;19.17;16.10;;;;;;;5.61;93.50;100927.97;4996615;28;20030;-79
2022/09/30 07:06:11;;;;;;;21.15;14.32;;;;;;;5.62;93.48;100928.81;4993352;28;20040;-79
2022/09/30 07:08:37;;;;;;;23.75;18.58;;;;;;;5.76;94.10;100942.53;4995572;28;20515;-79
2022/09/30 07:11:13;;;;;;;24.98;20.33;;;;;;;5.78;94.13;100935.53;4994701;28;20037;-79
2022/09/30 07:13:44;;;;;;;24.85;16.75;;;;;;;5.89;94.47;100932.31;5008291;28;20464;-79
2022/09/30 07:16:10;;;;;;;26.73;17.90;;;;;;;5.95;94.87;100926.00;5003007;28;20029;-79
2022/09/30 07:18:37;;;;;;;26.88;17.73;;;;;;;5.88;94.52;100909.25;5008075;28;20018;-79
2022/09/30 07:21:02;;;;;;;31.63;19.73;;;;;;;6.13;94.78;100942.91;5005334;28;20026;-78
2022/09/30 07:23:28;;;;;;;30.25;19.52;;;;;;;6.13;94.68;100930.03;5003096;28;20038;-79
2022/09/30 07:26:01;;;;;;;30.20;19.35;;;;;;;6.27;94.77;100942.88;4997965;28;20033;-78
2022/09/30 07:28:30;;;;;;;28.02;23.08;;;;;;;6.34;94.41;100939.00;5007632;28;20481;-78
2022/09/30 07:30:57;;;;;;;28.20;19.63;;;;;;;6.35;95.13;100929.53;5001701;28;20032;-78
2022/09/30 07:33:27;;;;;;;26.52;21.63;;;;;;;6.49;95.53;100936.41;5007396;28;20125;-79
2022/09/30 07:35:53;;;;;;;28.52;19.60;;;;;;;6.54;95.97;100935.19;4997734;28;20399;-78
2022/09/30 07:38:21;;;;;;;29.48;23.60;;;;;;;6.62;95.89;100938.09;5000446;28;20030;-78
2022/09/30 07:40:52;;;;;;;30.05;20.85;;;;;;;6.76;95.16;100950.13;5006080;28;20030;-79
2022/09/30 07:43:18;;;;;;;31.92;28.52;;;;;;;6.80;96.03;100935.28;4997249;28;20506;-79
2022/09/30 07:45:43;;;;;;;29.85;24.80;;;;;;;6.90;96.02;100942.34;5005473;28;20479;-79
2022/09/30 07:48:38;;;;;;;32.30;25.98;;;;;;;7.06;95.82;100941.34;5006821;28;20108;-79
2022/09/30 07:50:54;;;;;;;28.13;20.65;;;;;;;7.18;96.50;100945.72;5007165;28;20060;-79
2022/09/30 07:53:20;;;;;;;32.90;25.02;;;;;;;7.27;96.55;100934.78;5006787;28;20033;-79
2022/09/30 07:55:45;;;;;;;28.85;22.15;;;;;;;7.34;96.85;100933.47;5000528;28;20380;-79
2022/09/30 07:58:11;;;;;;;32.75;25.85;;;;;;;7.52;97.22;100940.91;5007161;28;20052;-79
2022/09/30 08:00:37;;;;;;;34.10;29.98;;;;;;;7.64;96.38;100942.66;5005195;28;20065;-79
2022/09/30 08:03:03;;;;;;;35.30;29.98;;;;;;;7.77;97.20;100943.47;5005751;28;20503;-79
2022/09/30 08:05:28;;;;;;;34.33;30.73;;;;;;;7.88;96.81;100925.50;5005612;28;20045;-79
2022/09/30 08:07:54;;;;;;;38.17;31.67;;;;;;;8.01;97.06;100924.66;5005391;28;20037;-79
2022/09/30 08:10:19;;;;;;;35.78;31.75;;;;;;;8.17;96.85;100930.41;5001680;28;20037;-79
2022/09/30 08:12:44;;;;;;;37.78;31.95;;;;;;;8.24;96.22;100926.44;5006921;28;20045;-78
2022/09/30 08:15:10;;;;;;;35.45;30.45;;;;;;;8.37;96.57;100927.28;4997601;28;20027;-79
2022/09/30 08:17:35;;;;;;;32.03;27.40;;;;;;;8.51;96.25;100926.28;5001630;28;20022;-79
2022/09/30 08:20:00;;;;;;;36.83;33.10;;;;;;;8.61;95.79;100923.88;5002403;28;20454;-79
2022/09/30 08:22:27;;;;;;;31.30;25.52;;;;;;;8.70;96.13;100930.97;5001225;28;20419;-79
2022/09/30 08:24:52;;;;;;;32.80;29.30;;;;;;;8.81;95.47;100920.69;5000888;28;20033;-79
2022/09/30 08:27:19;;;;;;;32.88;29.38;;;;;;;8.99;95.20;100928.84;4998090;28;20050;-79
2022/09/30 08:29:44;;;;;;;33.53;30.20;;;;;;;9.04;95.11;100919.81;4992227;28;20080;-79
2022/09/30 08:32:10;;;;;;;39.97;36.40;;;;;;;9.24;95.16;100922.72;4996619;28;20621;-79
2022/09/30 08:34:35;;;;;;;42.20;38.55;;;;;;;9.31;94.73;100921.31;4993081;28;20037;-79
2022/09/30 08:37:01;;;;;;;33.90;30.30;;;;;;;9.48;94.51;100923.47;4995871;28;20054;-79
2022/09/30 08:39:26;;;;;;;31.65;28.30;;;;;;;9.55;94.49;100927.22;4997893;28;20041;-79
2022/09/30 08:41:59;;;;;;;39.50;36.00;;;;;;;9.77;94.57;100936.78;4997142;28;20068;-79
2022/09/30 08:44:46;;;;;;;37.85;34.47;;;;;;;9.85;94.53;100936.19;4994648;28;20080;-79
2022/09/30 08:47:38;;;;;;;32.85;29.70;;;;;;;9.87;93.21;100934.31;4987423;28;20624;-79
2022/09/30 08:50:15;;;;;;;34.63;31.52;;;;;;;10.08;92.71;100945.59;4995017;28;20029;-79
2022/09/30 08:52:45;;;;;;;34.35;31.38;;;;;;;10.18;92.39;100950.91;5002624;28;20505;-79
2022/09/30 08:55:28;;;;;;;33.22;30.23;;;;;;;10.29;91.91;100942.31;4994529;28;20023;-79
2022/09/30 08:57:55;;;;;;;33.50;30.38;;;;;;;10.40;91.60;100939.72;4994855;28;20081;-79
2022/09/30 09:00:21;;;;;;;31.75;29.02;;;;;;;10.48;91.19;100939.09;4997867;28;20046;-79
2022/09/30 09:03:02;;;;;;;25.80;23.35;;;;;;;10.61;89.48;100937.19;5009057;28;20061;-80
2022/09/30 09:05:33;;;;;;;26.08;23.63;;;;;;;10.73;88.32;100936.22;5000794;28;20030;-79
2022/09/30 09:08:20;;;;;;;24.60;22.33;;;;;;;10.85;88.92;100934.38;4994766;28;20032;-79
2022/09/30 09:10:55;;;;;;;23.00;21.05;;;;;;;10.92;88.00;100948.50;5006906;28;20048;-79
2022/09/30 09:13:49;;;;;;;22.80;20.75;;;;;;;10.93;87.84;100957.94;5006500;28;20038;-79
2022/09/30 09:16:29;;;;;;;23.05;20.98;;;;;;;11.07;87.46;100947.28;4992002;28;20042;-79
2022/09/30 09:19:06;;;;;;;23.90;21.63;;;;;;;11.25;87.29;100941.50;4998650;28;20388;-79
2022/09/30 09:21:52;;;;;;;21.17;19.25;;;;;;;11.23;87.07;100933.00;5006106;28;20021;-79
2022/09/30 09:24:21;;;;;;;20.13;18.35;;;;;;;11.50;85.71;100954.09;5009376;28;20068;-79
2022/09/30 09:26:47;;;;;;;;;;;;;;;11.52;87.75;100964.34;5001836;28;20026;-79
2022/09/30 09:29:22;;;;;;;21.40;19.38;;;;;;;11.70;86.60;100950.66;5008763;28;19913;-79
2022/09/30 09:31:48;;;;;;;19.45;17.77;;;;;;;11.85;85.20;100960.75;5009646;28;20029;-79
2022/09/30 09:34:14;;;;;;;18.98;17.33;;;;;;;11.91;85.50;100949.81;5003220;28;20031;-80
2022/09/30 09:36:42;;;;;;;17.88;16.15;;;;;;;12.09;84.15;100953.44;5000466;28;20030;-79
2022/09/30 09:39:25;;;;;;;17.70;16.13;;;;;;;12.07;84.80;100955.34;4994859;28;20046;-79
2022/09/30 09:42:15;;;;;;;19.33;17.48;;;;;;;12.16;84.63;100954.56;5002943;28;20026;-80
2022/09/30 09:44:57;;;;;;;18.15;16.40;;;;;;;12.25;83.76;100958.16;5006582;28;20025;-79
2022/09/30 09:47:22;;;;;;;18.60;16.90;;;;;;;12.35;82.78;100952.97;5002364;28;20057;-79
2022/09/30 09:49:57;;;;;;;17.25;15.70;;;;;;;12.38;83.19;100950.09;5008160;28;20030;-80
2022/09/30 09:53:00;;;;;;;16.52;15.07;;;;;;;12.50;82.62;100951.63;5005161;28;20108;-80
2022/09/30 09:55:25;;;;;;;15.38;13.98;;;;;;;12.60;81.43;100929.03;5003498;28;20392;-81
2022/09/30 09:58:09;;;;;;;13.88;12.57;;;;;;;12.66;81.03;100920.69;5009747;28;20484;-79
2022/09/30 10:03:18;;;;;;;12.50;11.25;;;;;;;12.79;78.45;100930.00;5005409;28;20050;-79
2022/09/30 10:06:17;;;;;;;13.10;11.80;;;;;;;12.96;79.14;100937.13;5008220;28;20391;-79
2022/09/30 10:08:52;;;;;;;;;;;;;;;13.06;82.19;100940.56;4981265;28;20547;-79
2022/09/30 10:11:23;;;;;;;12.02;10.93;;;;;;;13.05;78.39;100944.13;4995576;28;19937;-80
2022/09/30 10:13:54;;;;;;;12.55;11.25;;;;;;;13.10;77.63;100944.53;4997650;28;20129;-80
2022/09/30 10:16:34;;;;;;;12.43;11.15;;;;;;;13.32;77.59;100948.66;5007855;28;20026;-79
2022/09/30 10:19:02;;;;;;;10.02;8.98;;;;;;;13.41;76.29;100947.81;4999127;28;20058;-79
2022/09/30 10:21:29;;;;;;;10.20;9.20;;;;;;;13.56;75.88;100950.78;5004278;28;20384;-80
2022/09/30 10:23:56;;;;;;;10.23;8.98;;;;;;;13.59;75.01;100950.53;4994376;28;20514;-79
2022/09/30 10:26:26;;;;;;;11.68;10.48;;;;;;;13.79;75.39;100954.69;4997351;28;20025;-80
2022/09/30 10:28:55;;;;;;;12.57;11.45;;;;;;;13.72;74.74;100945.81;5003635;28;20034;-81
2022/09/30 10:31:39;;;;;;;;;;;;;;;13.86;78.31;100948.91;5003783;28;20057;-80
2022/09/30 10:34:07;;;;;;;12.32;11.13;;;;;;;13.84;74.16;100949.06;5008631;28;19983;-80
2022/09/30 10:36:35;;;;;;;11.18;10.07;;;;;;;13.95;73.09;100948.06;4999278;28;20033;-80
2022/09/30 10:39:15;;;;;;;12.18;10.23;;;;;;;13.90;71.70;100948.50;5008710;28;20407;-80
2022/09/30 10:41:41;;;;;;;12.27;11.05;;;;;;;14.05;73.06;100951.44;4995363;28;20506;-80
2022/09/30 10:44:20;;;;;;;13.32;12.02;;;;;;;14.08;74.00;100951.16;5008423;28;20490;-80
2022/09/30 10:46:48;;;;;;;12.93;11.25;;;;;;;14.17;73.28;100945.06;4999769;28;20022;-80
2022/09/30 10:49:26;;;;;;;12.38;11.07;;;;;;;14.25;73.83;100952.16;4999783;28;20034;-80
2022/09/30 10:51:54;;;;;;;11.32;10.15;;;;;;;14.31;72.31;100947.19;5005998;28;20022;-80
2022/09/30 10:54:43;;;;;;;12.20;11.00;;;;;;;14.40;73.06;100955.09;5003728;28;20053;-80
2022/09/30 10:57:17;;;;;;;14.63;13.32;;;;;;;14.32;72.13;100943.59;5000772;28;20136;-80
2022/09/30 10:59:44;;;;;;;14.25;12.93;;;;;;;14.37;73.02;100939.72;5006560;28;20125;-80
2022/09/30 11:02:28;;;;;;;12.15;11.00;;;;;;;14.60;72.70;100946.19;5007584;28;20113;-80
2022/09/30 11:05:05;;;;;;;10.98;9.73;;;;;;;14.55;71.90;100938.81;5004644;28;20041;-80
2022/09/30 11:07:39;;;;;;;11.10;9.85;;;;;;;14.62;71.68;100933.81;5007946;28;20033;-81
2022/09/30 11:10:13;;;;;;;11.10;10.00;;;;;;;14.67;71.37;100926.34;5001417;28;20036;-80
2022/09/30 11:12:38;;;;;;;10.80;8.77;;;;;;;14.77;71.46;100937.56;5006355;28;20088;-80
2022/09/30 11:15:27;;;;;;;9.20;8.20;;;;;;;14.79;72.57;100933.00;5002736;28;20112;-80
2022/09/30 11:18:03;;;;;;;9.25;7.88;;;;;;;14.96;71.35;100940.97;5003733;28;20085;-80
2022/09/30 11:20:34;;;;;;;9.80;8.38;;;;;;;14.92;69.40;100931.81;5007182;28;20032;-80
2022/09/30 11:23:20;;;;;;;8.43;7.15;;;;;;;15.03;70.45;100942.03;5007488;28;20030;-80
2022/09/30 11:26:14;;;;;;;8.75;7.57;;;;;;;14.98;70.44;100928.59;5007326;28;20022;-81
2022/09/30 11:29:26;;;;;;;9.35;8.13;;;;;;;14.99;71.44;100940.69;5006775;28;20052;-81
2022/09/30 11:31:56;;;;;;;7.05;5.22;;;;;;;14.72;70.23;100925.91;4963089;28;20101;-81
2022/09/30 11:35:13;;;;;;;5.82;4.70;;;;;;;15.04;70.79;100928.00;4961827;28;20034;-81
2022/09/30 11:37:50;;;;;;;6.80;5.03;;;;;;;15.15;71.10;100919.91;4907463;29;20056;-80
2022/09/30 11:40:27;;;;;;;7.80;6.93;;;;;;;15.30;69.97;100923.59;4908148;29;20515;-81
2022/09/30 11:43:38;;;;;;;6.20;4.65;;;;;;;15.32;68.67;100920.84;4907377;29;20044;-81